sensor_id;sensor_type;location;lat;lon;timestamp;pressure;altitude;pressure_sealevel;temperature;humidity
82858;BME280;72620;47.774;9.620;2023-09-18T00:00:46;95862.44;;;17.06;85.33
82858;BME280;72620;47.774;9.620;2023-09-18T00:03:21;95857.25;;;17.06;84.92
82858;BME280;72620;47.774;9.620;2023-09-18T00:05:52;95855.03;;;17.09;84.85
82858;BME280;72620;47.774;9.620;2023-09-18T00:08:20;95852.22;;;17.11;85.22
82858;BME280;72620;47.774;9.620;2023-09-18T00:10:50;95848.66;;;17.12;84.40
82858;BME280;72620;47.774;9.620;2023-09-18T00:13:21;95862.41;;;17.12;84.26
82858;BME280;72620;47.774;9.620;2023-09-18T00:15:49;95862.00;;;17.09;83.84
82858;BME280;72620;47.774;9.620;2023-09-18T00:18:18;95872.38;;;17.09;85.12
82858;BME280;72620;47.774;9.620;2023-09-18T00:20:46;95870.00;;;17.07;85.27
82858;BME280;72620;47.774;9.620;2023-09-18T00:23:14;95862.00;;;17.09;85.74
82858;BME280;72620;47.774;9.620;2023-09-18T00:25:42;95864.59;;;17.15;85.53
82858;BME280;72620;47.774;9.620;2023-09-18T00:28:10;95852.41;;;17.22;83.85
82858;BME280;72620;47.774;9.620;2023-09-18T00:30:42;95848.81;;;17.30;83.40
82858;BME280;72620;47.774;9.620;2023-09-18T00:33:15;95833.44;;;17.35;83.20
82858;BME280;72620;47.774;9.620;2023-09-18T00:35:49;95830.22;;;17.39;82.71
82858;BME280;72620;47.774;9.620;2023-09-18T00:38:17;95829.63;;;17.44;83.03
82858;BME280;72620;47.774;9.620;2023-09-18T00:40:46;95832.44;;;17.42;82.95
82858;BME280;72620;47.774;9.620;2023-09-18T00:43:13;95824.84;;;17.41;83.49
82858;BME280;72620;47.774;9.620;2023-09-18T00:45:48;95821.66;;;17.39;83.07
82858;BME280;72620;47.774;9.620;2023-09-18T00:48:16;95813.91;;;17.32;83.87
82858;BME280;72620;47.774;9.620;2023-09-18T00:50:44;95818.09;;;17.27;83.60
82858;BME280;72620;47.774;9.620;2023-09-18T00:53:19;95808.13;;;17.24;84.12
82858;BME280;72620;47.774;9.620;2023-09-18T00:55:53;95809.16;;;17.16;85.06
82858;BME280;72620;47.774;9.620;2023-09-18T00:58:25;95815.34;;;17.09;84.40
82858;BME280;72620;47.774;9.620;2023-09-18T01:00:53;95817.94;;;17.02;84.76
82858;BME280;72620;47.774;9.620;2023-09-18T01:03:21;95819.34;;;16.92;85.87
82858;BME280;72620;47.774;9.620;2023-09-18T01:05:49;95819.34;;;16.85;85.49
82858;BME280;72620;47.774;9.620;2023-09-18T01:08:16;95821.16;;;16.85;84.56
82858;BME280;72620;47.774;9.620;2023-09-18T01:13:59;95820.16;;;16.86;84.91
82858;BME280;72620;47.774;9.620;2023-09-18T01:16:58;95824.53;;;16.85;85.53
82858;BME280;72620;47.774;9.620;2023-09-18T01:19:45;95817.53;;;16.79;85.73
82858;BME280;72620;47.774;9.620;2023-09-18T01:22:15;95821.94;;;16.72;85.63
82858;BME280;72620;47.774;9.620;2023-09-18T01:24:46;95835.09;;;16.71;84.58
82858;BME280;72620;47.774;9.620;2023-09-18T01:27:16;95817.38;;;16.67;84.84
82858;BME280;72620;47.774;9.620;2023-09-18T01:29:45;95824.94;;;16.62;85.05
82858;BME280;72620;47.774;9.620;2023-09-18T01:32:15;95829.69;;;16.65;84.30
82858;BME280;72620;47.774;9.620;2023-09-18T01:34:49;95820.13;;;16.66;84.25
82858;BME280;72620;47.774;9.620;2023-09-18T01:37:23;95824.13;;;16.68;84.76
82858;BME280;72620;47.774;9.620;2023-09-18T01:39:53;95819.75;;;16.76;85.45
82858;BME280;72620;47.774;9.620;2023-09-18T01:42:22;95819.75;;;16.76;85.45
82858;BME280;72620;47.774;9.620;2023-09-18T01:44:52;95795.41;;;16.70;84.67
82858;BME280;72620;47.774;9.620;2023-09-18T01:47:21;95787.47;;;16.72;85.16
82858;BME280;72620;47.774;9.620;2023-09-18T01:49:53;95787.03;;;16.75;84.65
82858;BME280;72620;47.774;9.620;2023-09-18T01:52:21;95777.31;;;16.77;84.14
82858;BME280;72620;47.774;9.620;2023-09-18T01:54:50;95782.06;;;16.80;84.04
82858;BME280;72620;47.774;9.620;2023-09-18T01:57:17;95776.06;;;16.79;84.90
82858;BME280;72620;47.774;9.620;2023-09-18T01:59:44;95781.06;;;16.81;83.83
82858;BME280;72620;47.774;9.620;2023-09-18T02:02:13;95791.44;;;16.81;84.03
82858;BME280;72620;47.774;9.620;2023-09-18T02:04:55;95785.25;;;16.82;83.44
82858;BME280;72620;47.774;9.620;2023-09-18T02:07:35;95777.91;;;16.79;84.14
82858;BME280;72620;47.774;9.620;2023-09-18T02:10:03;95772.50;;;16.74;83.93
82858;BME280;72620;47.774;9.620;2023-09-18T02:12:30;95763.72;;;16.68;84.78
82858;BME280;72620;47.774;9.620;2023-09-18T02:14:57;95766.53;;;16.66;83.73
82858;BME280;72620;47.774;9.620;2023-09-18T02:17:25;95763.94;;;16.66;84.94
82858;BME280;72620;47.774;9.620;2023-09-18T02:19:52;95766.31;;;16.68;84.50
82858;BME280;72620;47.774;9.620;2023-09-18T02:22:19;95766.31;;;16.68;84.50
82858;BME280;72620;47.774;9.620;2023-09-18T02:24:46;95759.56;;;16.67;84.77
82858;BME280;72620;47.774;9.620;2023-09-18T02:27:13;95750.78;;;16.68;84.35
82858;BME280;72620;47.774;9.620;2023-09-18T02:29:44;95750.38;;;16.71;83.54
82858;BME280;72620;47.774;9.620;2023-09-18T02:32:11;95749.38;;;16.79;84.04
82858;BME280;72620;47.774;9.620;2023-09-18T02:34:38;95749.38;;;16.79;84.04
82858;BME280;72620;47.774;9.620;2023-09-18T02:37:06;95742.59;;;16.71;84.82
82858;BME280;72620;47.774;9.620;2023-09-18T02:39:33;95738.81;;;16.67;84.97
82858;BME280;72620;47.774;9.620;2023-09-18T02:42:00;95738.81;;;16.67;84.97
82858;BME280;72620;47.774;9.620;2023-09-18T02:44:27;95736.03;;;16.55;84.39
82858;BME280;72620;47.774;9.620;2023-09-18T02:46:54;95730.84;;;16.49;85.02
82858;BME280;72620;47.774;9.620;2023-09-18T02:49:21;95721.28;;;16.43;83.99
82858;BME280;72620;47.774;9.620;2023-09-18T02:51:48;95717.69;;;16.37;84.28
82858;BME280;72620;47.774;9.620;2023-09-18T02:54:16;95724.84;;;16.35;85.14
82858;BME280;72620;47.774;9.620;2023-09-18T02:56:43;95720.66;;;16.34;85.80
82858;BME280;72620;47.774;9.620;2023-09-18T02:59:10;95715.69;;;16.26;85.28
82858;BME280;72620;47.774;9.620;2023-09-18T03:01:37;95717.69;;;16.24;86.33
82858;BME280;72620;47.774;9.620;2023-09-18T03:04:04;95727.44;;;16.22;84.77
82858;BME280;72620;47.774;9.620;2023-09-18T03:06:32;95723.66;;;16.25;85.62
82858;BME280;72620;47.774;9.620;2023-09-18T03:08:59;95730.41;;;16.19;85.22
82858;BME280;72620;47.774;9.620;2023-09-18T03:11:26;95737.59;;;16.17;85.66
82858;BME280;72620;47.774;9.620;2023-09-18T03:13:55;95736.41;;;16.13;85.98
82858;BME280;72620;47.774;9.620;2023-09-18T03:16:22;95739.19;;;16.12;86.19
82858;BME280;72620;47.774;9.620;2023-09-18T03:18:49;95751.13;;;16.13;86.12
82858;BME280;72620;47.774;9.620;2023-09-18T03:21:17;95771.03;;;16.19;85.82
82858;BME280;72620;47.774;9.620;2023-09-18T03:23:44;95771.03;;;16.19;85.82
82858;BME280;72620;47.774;9.620;2023-09-18T03:26:11;95764.06;;;16.13;84.77
82858;BME280;72620;47.774;9.620;2023-09-18T03:28:38;95764.09;;;16.19;85.36
82858;BME280;72620;47.774;9.620;2023-09-18T03:31:05;95762.69;;;16.23;84.04
82858;BME280;72620;47.774;9.620;2023-09-18T03:33:33;95775.47;;;16.31;84.02
82858;BME280;72620;47.774;9.620;2023-09-18T03:36:00;95767.47;;;16.33;82.78
82858;BME280;72620;47.774;9.620;2023-09-18T03:38:27;95754.16;;;16.36;83.55
82858;BME280;72620;47.774;9.620;2023-09-18T03:40:59;95754.53;;;16.39;84.05
82858;BME280;72620;47.774;9.620;2023-09-18T03:43:28;95765.09;;;16.44;83.94
82858;BME280;72620;47.774;9.620;2023-09-18T03:45:55;95753.34;;;16.48;82.92
82858;BME280;72620;47.774;9.620;2023-09-18T03:48:22;95758.97;;;16.52;83.37
82858;BME280;72620;47.774;9.620;2023-09-18T03:50:49;95758.75;;;16.53;82.38
82858;BME280;72620;47.774;9.620;2023-09-18T03:53:16;95763.72;;;16.55;82.07
82858;BME280;72620;47.774;9.620;2023-09-18T03:55:44;95765.72;;;16.53;81.91
82858;BME280;72620;47.774;9.620;2023-09-18T03:58:11;95775.50;;;16.51;83.98
82858;BME280;72620;47.774;9.620;2023-09-18T04:00:39;95782.84;;;16.47;83.63
82858;BME280;72620;47.774;9.620;2023-09-18T04:03:06;95781.03;;;16.41;82.73
82858;BME280;72620;47.774;9.620;2023-09-18T04:05:33;95788.22;;;16.39;83.21
82858;BME280;72620;47.774;9.620;2023-09-18T04:08:00;95787.81;;;16.36;84.21
82858;BME280;72620;47.774;9.620;2023-09-18T04:10:27;95794.41;;;16.38;83.80
82858;BME280;72620;47.774;9.620;2023-09-18T04:12:55;95815.88;;;16.39;84.11
82858;BME280;72620;47.774;9.620;2023-09-18T04:15:22;95818.69;;;16.37;83.63
82858;BME280;72620;47.774;9.620;2023-09-18T04:17:49;95817.88;;;16.37;83.24
82858;BME280;72620;47.774;9.620;2023-09-18T04:20:17;95819.72;;;16.43;83.01
82858;BME280;72620;47.774;9.620;2023-09-18T04:22:46;95831.31;;;16.53;82.75
82858;BME280;72620;47.774;9.620;2023-09-18T04:25:17;95831.31;;;16.53;82.75
82858;BME280;72620;47.774;9.620;2023-09-18T04:27:46;95826.91;;;16.54;82.32
82858;BME280;72620;47.774;9.620;2023-09-18T04:30:16;95826.50;;;16.57;81.97
82858;BME280;72620;47.774;9.620;2023-09-18T04:32:46;95820.56;;;16.56;82.10
82858;BME280;72620;47.774;9.620;2023-09-18T04:35:14;95823.75;;;16.58;82.25
82858;BME280;72620;47.774;9.620;2023-09-18T04:37:41;95819.53;;;16.57;82.06
82858;BME280;72620;47.774;9.620;2023-09-18T04:40:08;95815.75;;;16.53;83.79
82858;BME280;72620;47.774;9.620;2023-09-18T04:42:39;95824.34;;;16.54;82.75
82858;BME280;72620;47.774;9.620;2023-09-18T04:45:07;95827.53;;;16.56;81.97
82858;BME280;72620;47.774;9.620;2023-09-18T04:47:34;95838.47;;;16.58;81.58
82858;BME280;72620;47.774;9.620;2023-09-18T04:50:02;95843.44;;;16.59;81.85
82858;BME280;72620;47.774;9.620;2023-09-18T04:52:37;95835.69;;;16.59;80.98
82858;BME280;72620;47.774;9.620;2023-09-18T04:55:04;95827.53;;;16.62;81.38
82858;BME280;72620;47.774;9.620;2023-09-18T04:57:32;95827.72;;;16.61;82.29
82858;BME280;72620;47.774;9.620;2023-09-18T05:00:01;95831.31;;;16.60;82.24
82858;BME280;72620;47.774;9.620;2023-09-18T05:02:43;95841.47;;;16.61;82.04
82858;BME280;72620;47.774;9.620;2023-09-18T05:05:11;95850.84;;;16.62;80.92
82858;BME280;72620;47.774;9.620;2023-09-18T05:07:38;95865.00;;;16.66;81.92
82858;BME280;72620;47.774;9.620;2023-09-18T05:10:06;95865.00;;;16.66;81.92
82858;BME280;72620;47.774;9.620;2023-09-18T05:12:33;95857.22;;;16.53;82.85
82858;BME280;72620;47.774;9.620;2023-09-18T05:15:00;95855.41;;;16.54;81.76
82858;BME280;72620;47.774;9.620;2023-09-18T05:17:47;95867.97;;;16.57;81.83
82858;BME280;72620;47.774;9.620;2023-09-18T05:20:19;95890.09;;;16.59;81.71
82858;BME280;72620;47.774;9.620;2023-09-18T05:22:46;95889.72;;;16.62;81.92
82858;BME280;72620;47.774;9.620;2023-09-18T05:25:14;95900.28;;;16.67;81.09
82858;BME280;72620;47.774;9.620;2023-09-18T05:27:42;95904.66;;;16.74;80.86
82858;BME280;72620;47.774;9.620;2023-09-18T05:30:18;95897.50;;;16.82;81.20
82858;BME280;72620;47.774;9.620;2023-09-18T05:32:48;95911.06;;;16.91;82.36
82858;BME280;72620;47.774;9.620;2023-09-18T05:35:15;95910.28;;;16.97;81.96
82858;BME280;72620;47.774;9.620;2023-09-18T05:37:44;95905.91;;;17.10;82.11
82858;BME280;72620;47.774;9.620;2023-09-18T05:40:13;95905.47;;;17.20;81.82
82858;BME280;72620;47.774;9.620;2023-09-18T05:42:42;95907.28;;;17.26;81.98
82858;BME280;72620;47.774;9.620;2023-09-18T05:45:11;95915.25;;;17.31;81.53
82858;BME280;72620;47.774;9.620;2023-09-18T05:47:41;95916.66;;;17.40;81.30
82858;BME280;72620;47.774;9.620;2023-09-18T05:50:11;95932.03;;;17.48;81.18
82858;BME280;72620;47.774;9.620;2023-09-18T05:52:44;95936.03;;;17.57;81.37
82858;BME280;72620;47.774;9.620;2023-09-18T05:55:13;95925.03;;;17.68;81.32
82858;BME280;72620;47.774;9.620;2023-09-18T05:57:41;95919.81;;;17.75;81.45
82858;BME280;72620;47.774;9.620;2023-09-18T06:00:09;95920.19;;;17.85;81.71
82858;BME280;72620;47.774;9.620;2023-09-18T06:02:40;95915.75;;;17.98;81.32
82858;BME280;72620;47.774;9.620;2023-09-18T06:05:08;95916.50;;;18.12;80.54
82858;BME280;72620;47.774;9.620;2023-09-18T06:07:38;95910.88;;;18.22;80.27
82858;BME280;72620;47.774;9.620;2023-09-18T06:10:06;95900.09;;;18.25;80.36
82858;BME280;72620;47.774;9.620;2023-09-18T06:12:33;95901.84;;;18.31;80.36
82858;BME280;72620;47.774;9.620;2023-09-18T06:15:01;95893.72;;;18.58;80.14
82858;BME280;72620;47.774;9.620;2023-09-18T06:17:28;95893.72;;;18.58;80.14
82858;BME280;72620;47.774;9.620;2023-09-18T06:19:55;95885.47;;;18.68;79.53
82858;BME280;72620;47.774;9.620;2023-09-18T06:22:22;95882.00;;;18.80;79.33
82858;BME280;72620;47.774;9.620;2023-09-18T06:24:49;95875.94;;;18.87;79.31
82858;BME280;72620;47.774;9.620;2023-09-18T06:27:16;95864.50;;;18.94;78.57
82858;BME280;72620;47.774;9.620;2023-09-18T06:29:45;95862.63;;;19.01;79.39
82858;BME280;72620;47.774;9.620;2023-09-18T06:32:12;95853.75;;;19.09;78.72
82858;BME280;72620;47.774;9.620;2023-09-18T06:34:39;95848.09;;;19.18;78.15
82858;BME280;72620;47.774;9.620;2023-09-18T06:37:10;95858.19;;;19.26;77.86
82858;BME280;72620;47.774;9.620;2023-09-18T06:39:40;95876.00;;;19.29;77.76
82858;BME280;72620;47.774;9.620;2023-09-18T06:42:07;95878.59;;;19.29;78.99
82858;BME280;72620;47.774;9.620;2023-09-18T06:44:36;95888.22;;;19.29;78.40
82858;BME280;72620;47.774;9.620;2023-09-18T06:47:03;95868.53;;;19.33;78.33
82858;BME280;72620;47.774;9.620;2023-09-18T06:49:30;95864.16;;;19.33;78.75
82858;BME280;72620;47.774;9.620;2023-09-18T06:51:57;95881.38;;;19.34;78.75
82858;BME280;72620;47.774;9.620;2023-09-18T06:54:25;95882.16;;;19.35;78.15
82858;BME280;72620;47.774;9.620;2023-09-18T06:56:52;95887.38;;;19.35;78.08
82858;BME280;72620;47.774;9.620;2023-09-18T06:59:20;95898.59;;;19.35;78.34
82858;BME280;72620;47.774;9.620;2023-09-18T07:01:47;95918.59;;;19.35;78.49
82858;BME280;72620;47.774;9.620;2023-09-18T07:04:14;95922.38;;;19.32;78.23
82858;BME280;72620;47.774;9.620;2023-09-18T07:06:41;95932.78;;;19.32;78.18
82858;BME280;72620;47.774;9.620;2023-09-18T07:09:08;95956.84;;;19.34;78.31
82858;BME280;72620;47.774;9.620;2023-09-18T07:11:38;95956.84;;;19.34;78.31
82858;BME280;72620;47.774;9.620;2023-09-18T07:14:06;95956.09;;;19.27;78.97
82858;BME280;72620;47.774;9.620;2023-09-18T07:16:33;95956.66;;;19.29;78.31
82858;BME280;72620;47.774;9.620;2023-09-18T07:19:01;95961.41;;;19.32;78.16
82858;BME280;72620;47.774;9.620;2023-09-18T07:21:31;95986.66;;;19.38;78.93
82858;BME280;72620;47.774;9.620;2023-09-18T07:23:58;95986.66;;;19.38;78.93
82858;BME280;72620;47.774;9.620;2023-09-18T07:26:25;95991.06;;;19.38;79.12
82858;BME280;72620;47.774;9.620;2023-09-18T07:28:52;95995.63;;;19.42;78.28
82858;BME280;72620;47.774;9.620;2023-09-18T07:31:20;95992.78;;;19.44;78.79
82858;BME280;72620;47.774;9.620;2023-09-18T07:33:47;95997.75;;;19.52;78.01
82858;BME280;72620;47.774;9.620;2023-09-18T07:36:15;95994.66;;;19.62;77.74
82858;BME280;72620;47.774;9.620;2023-09-18T07:38:42;96006.97;;;19.73;77.79
82858;BME280;72620;47.774;9.620;2023-09-18T07:41:10;96012.09;;;19.86;76.90
82858;BME280;72620;47.774;9.620;2023-09-18T07:43:37;95996.34;;;19.99;76.89
82858;BME280;72620;47.774;9.620;2023-09-18T07:46:05;96002.41;;;20.11;75.20
82858;BME280;72620;47.774;9.620;2023-09-18T07:48:32;96000.53;;;20.18;74.79
82858;BME280;72620;47.774;9.620;2023-09-18T07:51:01;95996.31;;;20.23;75.19
82858;BME280;72620;47.774;9.620;2023-09-18T07:53:28;96006.81;;;20.35;73.95
82858;BME280;72620;47.774;9.620;2023-09-18T07:55:57;96009.34;;;20.42;71.91
82858;BME280;72620;47.774;9.620;2023-09-18T07:58:26;96013.97;;;20.40;71.47
82858;BME280;72620;47.774;9.620;2023-09-18T08:00:57;96029.97;;;20.43;72.75
82858;BME280;72620;47.774;9.620;2023-09-18T08:03:25;96041.13;;;20.32;71.90
82858;BME280;72620;47.774;9.620;2023-09-18T08:05:53;96041.13;;;20.32;71.90
82858;BME280;72620;47.774;9.620;2023-09-18T08:08:21;96037.94;;;20.30;71.58
82858;BME280;72620;47.774;9.620;2023-09-18T08:10:51;96027.50;;;20.30;72.29
82858;BME280;72620;47.774;9.620;2023-09-18T08:13:19;96028.09;;;20.32;70.47
82858;BME280;72620;47.774;9.620;2023-09-18T08:15:46;96026.72;;;20.30;72.21
82858;BME280;72620;47.774;9.620;2023-09-18T08:18:14;96037.94;;;20.30;71.80
82858;BME280;72620;47.774;9.620;2023-09-18T08:20:44;96045.91;;;20.35;71.44
82858;BME280;72620;47.774;9.620;2023-09-18T08:23:12;96049.03;;;20.44;71.05
82858;BME280;72620;47.774;9.620;2023-09-18T08:25:39;96032.16;;;20.46;69.77
82858;BME280;72620;47.774;9.620;2023-09-18T08:28:07;96036.13;;;20.49;71.21
82858;BME280;72620;47.774;9.620;2023-09-18T08:30:35;96060.31;;;20.56;70.74
82858;BME280;72620;47.774;9.620;2023-09-18T08:33:04;96060.31;;;20.56;70.74
82858;BME280;72620;47.774;9.620;2023-09-18T08:35:32;96063.84;;;20.43;71.00
82858;BME280;72620;47.774;9.620;2023-09-18T08:37:59;96076.31;;;20.41;71.59
82858;BME280;72620;47.774;9.620;2023-09-18T08:40:27;96078.13;;;20.41;72.19
82858;BME280;72620;47.774;9.620;2023-09-18T08:42:55;96067.91;;;20.39;70.50
82858;BME280;72620;47.774;9.620;2023-09-18T08:45:39;96057.09;;;20.36;70.71
82858;BME280;72620;47.774;9.620;2023-09-18T08:48:12;96053.50;;;20.37;72.12
82858;BME280;72620;47.774;9.620;2023-09-18T08:50:40;96056.63;;;20.45;74.33
82858;BME280;72620;47.774;9.620;2023-09-18T08:53:09;96058.56;;;20.50;74.34
82858;BME280;72620;47.774;9.620;2023-09-18T08:55:37;96065.16;;;20.52;76.10
82858;BME280;72620;47.774;9.620;2023-09-18T08:58:06;96060.91;;;20.40;74.99
82858;BME280;72620;47.774;9.620;2023-09-18T09:00:38;96077.50;;;20.20;76.27
82858;BME280;72620;47.774;9.620;2023-09-18T09:03:05;96099.78;;;19.92;77.89
82858;BME280;72620;47.774;9.620;2023-09-18T09:05:33;96099.78;;;19.92;77.89
82858;BME280;72620;47.774;9.620;2023-09-18T09:08:00;96096.53;;;19.72;79.37
82858;BME280;72620;47.774;9.620;2023-09-18T09:10:29;96107.00;;;19.65;78.78
82858;BME280;72620;47.774;9.620;2023-09-18T09:12:58;96114.06;;;19.58;78.12
82858;BME280;72620;47.774;9.620;2023-09-18T09:15:31;96108.94;;;19.45;77.90
82858;BME280;72620;47.774;9.620;2023-09-18T09:18:13;96133.19;;;19.39;79.49
82858;BME280;72620;47.774;9.620;2023-09-18T09:21:13;96135.78;;;19.32;79.69
82858;BME280;72620;47.774;9.620;2023-09-18T09:23:51;96157.06;;;19.23;81.46
82858;BME280;72620;47.774;9.620;2023-09-18T09:26:22;96144.88;;;19.10;80.13
82858;BME280;72620;47.774;9.620;2023-09-18T09:28:50;96160.94;;;19.07;80.04
82858;BME280;72620;47.774;9.620;2023-09-18T09:33:55;96165.00;;;18.83;81.40
82858;BME280;72620;47.774;9.620;2023-09-18T09:36:26;96160.63;;;18.77;82.39
82858;BME280;72620;47.774;9.620;2023-09-18T09:38:57;96175.03;;;18.73;82.62
82858;BME280;72620;47.774;9.620;2023-09-18T09:41:27;96177.06;;;18.65;84.05
82858;BME280;72620;47.774;9.620;2023-09-18T09:43:55;96186.22;;;18.61;82.94
82858;BME280;72620;47.774;9.620;2023-09-18T09:46:23;96189.44;;;18.50;82.62
82858;BME280;72620;47.774;9.620;2023-09-18T09:49:03;96188.03;;;18.41;81.91
82858;BME280;72620;47.774;9.620;2023-09-18T09:51:33;96184.44;;;18.35;82.47
82858;BME280;72620;47.774;9.620;2023-09-18T09:54:01;96183.41;;;18.36;83.45
82858;BME280;72620;47.774;9.620;2023-09-18T09:59:11;96201.03;;;18.21;84.05
82858;BME280;72620;47.774;9.620;2023-09-18T10:01:41;96204.22;;;18.17;84.85
82858;BME280;72620;47.774;9.620;2023-09-18T10:04:15;96202.22;;;18.19;83.13
82858;BME280;72620;47.774;9.620;2023-09-18T10:06:49;96208.00;;;18.14;84.62
82858;BME280;72620;47.774;9.620;2023-09-18T10:09:21;96218.59;;;18.13;84.12
82858;BME280;72620;47.774;9.620;2023-09-18T10:11:52;96225.59;;;18.05;84.61
82858;BME280;72620;47.774;9.620;2023-09-18T10:14:31;96223.38;;;17.96;85.89
82858;BME280;72620;47.774;9.620;2023-09-18T10:17:21;96224.56;;;17.93;85.81
82858;BME280;72620;47.774;9.620;2023-09-18T10:20:07;96239.16;;;17.94;84.78
82858;BME280;72620;47.774;9.620;2023-09-18T10:22:41;96238.78;;;17.97;85.86
82858;BME280;72620;47.774;9.620;2023-09-18T10:25:18;96233.38;;;17.99;84.73
82858;BME280;72620;47.774;9.620;2023-09-18T10:27:54;96218.59;;;17.93;85.02
82858;BME280;72620;47.774;9.620;2023-09-18T10:30:27;96210.97;;;17.91;84.92
82858;BME280;72620;47.774;9.620;2023-09-18T10:32:56;96209.56;;;17.89;84.91
82858;BME280;72620;47.774;9.620;2023-09-18T10:35:27;96209.38;;;17.90;84.92
82858;BME280;72620;47.774;9.620;2023-09-18T10:37:57;96204.78;;;17.92;86.33
82858;BME280;72620;47.774;9.620;2023-09-18T10:40:26;96199.81;;;17.91;86.63
82858;BME280;72620;47.774;9.620;2023-09-18T10:42:57;96201.41;;;17.98;85.12
82858;BME280;72620;47.774;9.620;2023-09-18T10:45:25;96203.81;;;18.06;85.84
82858;BME280;72620;47.774;9.620;2023-09-18T10:47:54;96201.63;;;18.10;84.47
82858;BME280;72620;47.774;9.620;2023-09-18T10:50:25;96188.63;;;18.17;83.94
82858;BME280;72620;47.774;9.620;2023-09-18T10:52:57;96191.03;;;18.25;83.83
82858;BME280;72620;47.774;9.620;2023-09-18T10:55:25;96188.63;;;18.30;84.12
82858;BME280;72620;47.774;9.620;2023-09-18T10:57:56;96201.00;;;18.41;82.16
82858;BME280;72620;47.774;9.620;2023-09-18T11:00:25;96210.66;;;18.60;82.41
82858;BME280;72620;47.774;9.620;2023-09-18T11:05:44;96194.22;;;18.66;81.82
82858;BME280;72620;47.774;9.620;2023-09-18T11:08:29;96194.22;;;18.66;80.67
82858;BME280;72620;47.774;9.620;2023-09-18T11:11:08;96212.59;;;18.91;82.96
82858;BME280;72620;47.774;9.620;2023-09-18T11:13:43;96212.59;;;18.91;82.96
82858;BME280;72620;47.774;9.620;2023-09-18T11:21:30;96218.09;;;19.27;82.11
82858;BME280;72620;47.774;9.620;2023-09-18T11:24:04;96216.06;;;19.29;80.66
82858;BME280;72620;47.774;9.620;2023-09-18T11:26:33;96216.06;;;19.29;80.66
82858;BME280;72620;47.774;9.620;2023-09-18T11:29:05;96202.50;;;19.20;82.78
82858;BME280;72620;47.774;9.620;2023-09-18T11:34:30;96217.09;;;19.21;81.19
82858;BME280;72620;47.774;9.620;2023-09-18T11:37:21;96218.94;;;19.14;81.21
82858;BME280;72620;47.774;9.620;2023-09-18T11:39:49;96216.88;;;19.36;81.45
82858;BME280;72620;47.774;9.620;2023-09-18T11:42:20;96225.28;;;19.38;81.06
82858;BME280;72620;47.774;9.620;2023-09-18T11:44:54;96209.03;;;19.49;80.02
82858;BME280;72620;47.774;9.620;2023-09-18T11:47:24;96204.38;;;19.58;83.09
82858;BME280;72620;47.774;9.620;2023-09-18T11:49:57;96204.38;;;19.58;83.09
82858;BME280;72620;47.774;9.620;2023-09-18T11:52:28;96194.38;;;19.55;81.17
82858;BME280;72620;47.774;9.620;2023-09-18T11:54:59;96185.16;;;19.59;81.60
82858;BME280;72620;47.774;9.620;2023-09-18T11:57:27;96174.97;;;19.50;79.86
82858;BME280;72620;47.774;9.620;2023-09-18T11:59:57;96169.22;;;19.35;82.22
82858;BME280;72620;47.774;9.620;2023-09-18T12:02:38;96165.88;;;19.15;80.02
82858;BME280;72620;47.774;9.620;2023-09-18T12:05:15;96160.53;;;18.97;82.04
82858;BME280;72620;47.774;9.620;2023-09-18T12:07:45;96156.19;;;18.91;83.11
82858;BME280;72620;47.774;9.620;2023-09-18T12:10:19;96136.94;;;18.92;81.96
82858;BME280;72620;47.774;9.620;2023-09-18T12:12:48;96150.88;;;19.17;82.38
82858;BME280;72620;47.774;9.620;2023-09-18T12:15:18;96150.88;;;19.17;82.38
82858;BME280;72620;47.774;9.620;2023-09-18T12:17:46;96129.66;;;19.20;82.96
82858;BME280;72620;47.774;9.620;2023-09-18T12:20:18;96132.25;;;19.20;81.82
82858;BME280;72620;47.774;9.620;2023-09-18T12:22:48;96102.16;;;19.31;81.11
82858;BME280;72620;47.774;9.620;2023-09-18T12:25:17;96112.56;;;19.37;81.52
82858;BME280;72620;47.774;9.620;2023-09-18T12:27:51;96112.56;;;19.37;81.52
82858;BME280;72620;47.774;9.620;2023-09-18T12:30:21;96101.56;;;19.35;79.31
82858;BME280;72620;47.774;9.620;2023-09-18T12:32:51;96116.81;;;19.25;79.36
82858;BME280;72620;47.774;9.620;2023-09-18T12:35:19;96130.09;;;19.11;79.27
82858;BME280;72620;47.774;9.620;2023-09-18T12:37:47;96122.50;;;19.09;80.35
82858;BME280;72620;47.774;9.620;2023-09-18T12:40:26;96115.13;;;19.00;81.22
82858;BME280;72620;47.774;9.620;2023-09-18T12:42:59;96113.91;;;19.02;82.71
82858;BME280;72620;47.774;9.620;2023-09-18T12:45:27;96104.47;;;19.08;82.24
82858;BME280;72620;47.774;9.620;2023-09-18T12:47:57;96091.28;;;19.09;80.99
82858;BME280;72620;47.774;9.620;2023-09-18T12:50:26;96112.06;;;19.16;81.64
82858;BME280;72620;47.774;9.620;2023-09-18T12:52:53;96112.06;;;19.16;81.64
82858;BME280;72620;47.774;9.620;2023-09-18T12:55:22;96101.91;;;19.01;80.31
82858;BME280;72620;47.774;9.620;2023-09-18T12:57:54;96091.34;;;18.96;80.06
82858;BME280;72620;47.774;9.620;2023-09-18T13:00:22;96087.13;;;18.95;81.71
82858;BME280;72620;47.774;9.620;2023-09-18T13:02:53;96061.38;;;18.87;80.41
82858;BME280;72620;47.774;9.620;2023-09-18T13:05:24;96087.38;;;18.87;81.46
82858;BME280;72620;47.774;9.620;2023-09-18T13:07:54;96050.56;;;18.83;82.40
82858;BME280;72620;47.774;9.620;2023-09-18T13:10:22;96060.16;;;18.90;81.30
82858;BME280;72620;47.774;9.620;2023-09-18T13:12:53;96039.13;;;18.98;80.86
82858;BME280;72620;47.774;9.620;2023-09-18T13:15:30;96028.03;;;19.09;80.85
82858;BME280;72620;47.774;9.620;2023-09-18T13:18:00;96053.06;;;19.10;79.66
82858;BME280;72620;47.774;9.620;2023-09-18T13:20:36;96075.19;;;19.25;78.99
82858;BME280;72620;47.774;9.620;2023-09-18T13:23:03;96084.75;;;19.38;79.30
82858;BME280;72620;47.774;9.620;2023-09-18T13:25:36;96084.75;;;19.38;79.30
82858;BME280;72620;47.774;9.620;2023-09-18T13:28:08;96069.09;;;19.44;78.28
82858;BME280;72620;47.774;9.620;2023-09-18T13:30:37;96067.72;;;19.67;80.34
82858;BME280;72620;47.774;9.620;2023-09-18T13:33:08;96066.41;;;19.82;76.80